Time;durP1;ratioP1;P1;durP2;ratioP2;P2;SDS_P1;SDS_P2;PMS_P1;PMS_P2;Temp;Humidity;BMP_temperature;BMP_pressure;BME280_temperature;BME280_humidity;BME280_pressure;Samples;Min_cycle;Max_cycle;Signal;HPM_P1;HPM_P2
2023/09/01 00:04:14;;;;;;;7.10;2.30;;;;;;;17.92;54.91;99901.75;7710806;32;37130;-83
2023/09/01 00:08:31;;;;;;;3.72;2.20;;;;;;;18.02;54.99;99904.22;7710990;32;40042;-82
2023/09/01 00:12:47;;;;;;;3.37;2.25;;;;;;;18.02;55.60;99911.66;7711136;32;39955;-83
2023/09/01 00:17:04;;;;;;;4.82;2.60;;;;;;;18.00;56.01;99909.22;7711105;32;37985;-82
2023/09/01 00:21:20;;;;;;;3.80;2.47;;;;;;;17.75;57.07;99915.44;7710950;32;37861;-83
2023/09/01 00:25:36;;;;;;;3.37;2.05;;;;;;;17.49;58.23;99915.25;7710745;32;39327;-82
2023/09/01 00:29:52;;;;;;;2.90;2.10;;;;;;;17.58;58.19;99908.69;7710317;32;40022;-83
2023/09/01 00:34:09;;;;;;;3.30;2.20;;;;;;;17.68;57.48;99902.09;7710712;32;38467;-83
2023/09/01 00:38:26;;;;;;;4.07;2.10;;;;;;;17.39;58.40;99910.84;7710691;32;37650;-83
2023/09/01 00:42:42;;;;;;;3.15;1.90;;;;;;;17.58;57.90;99905.12;7686781;32;40047;-82
2023/09/01 00:46:59;;;;;;;2.83;1.95;;;;;;;17.75;56.98;99915.44;7683811;32;39856;-83
2023/09/01 00:51:15;;;;;;;3.50;1.95;;;;;;;17.36;57.95;99916.97;7682419;32;37752;-83
2023/09/01 00:55:35;;;;;;;5.10;2.15;;;;;;;17.42;57.51;99921.25;7683182;32;37266;-83
2023/09/01 00:59:52;;;;;;;5.32;2.62;;;;;;;17.14;58.57;99921.34;7682631;32;39989;-82
2023/09/01 01:04:09;;;;;;;3.62;2.22;;;;;;;16.93;59.59;99917.47;7683521;32;40069;-83
2023/09/01 01:08:28;;;;;;;2.72;2.00;;;;;;;17.02;59.42;99912.84;7683305;32;38484;-83
2023/09/01 01:12:57;;;;;;;3.42;2.55;;;;;;;16.98;59.52;99922.84;7683373;32;37860;-82
2023/09/01 01:17:19;;;;;;;3.75;2.10;;;;;;;17.20;58.83;99919.31;7682949;32;39448;-82
2023/09/01 01:21:37;;;;;;;4.10;2.30;;;;;;;17.37;58.02;99907.59;7685415;32;39851;-83
2023/09/01 01:25:53;;;;;;;5.62;2.37;;;;;;;17.23;57.99;99916.72;7687611;32;37866;-82
2023/09/01 01:30:13;;;;;;;4.30;2.50;;;;;;;17.25;57.85;99911.72;7711713;32;37912;-82
2023/09/01 01:34:37;;;;;;;3.30;2.10;;;;;;;16.95;59.20;99907.75;7712983;32;39386;-82
2023/09/01 01:39:08;;;;;;;5.18;2.33;;;;;;;16.89;59.49;99914.53;7711936;32;40719;-83
2023/09/01 01:43:26;;;;;;;4.87;2.62;;;;;;;16.85;59.61;99910.75;7712909;32;37834;-82
2023/09/01 01:47:42;;;;;;;4.47;2.12;;;;;;;16.85;59.60;99919.00;7712837;32;37170;-82
2023/09/01 01:52:00;;;;;;;4.18;2.20;;;;;;;17.10;58.97;99920.34;7712855;32;39960;-83
2023/09/01 01:56:16;;;;;;;3.65;2.33;;;;;;;17.29;58.55;99922.94;7695637;32;39982;-82
2023/09/01 02:00:33;;;;;;;4.07;1.90;;;;;;;17.02;59.13;99929.34;7686027;32;37694;-82
2023/09/01 02:04:49;;;;;;;3.20;2.25;;;;;;;17.08;58.84;99930.88;7686244;32;36853;-83
2023/09/01 02:09:09;;;;;;;3.58;2.30;;;;;;;16.97;59.03;99934.97;7685890;32;39322;-83
2023/09/01 02:13:26;;;;;;;5.93;2.30;;;;;;;16.64;60.28;99946.16;7685938;32;40976;-82
2023/09/01 02:17:43;;;;;;;3.85;1.90;;;;;;;16.79;59.99;99953.28;7686499;32;38778;-82
2023/09/01 02:22:00;;;;;;;3.40;1.87;;;;;;;16.83;59.56;99941.34;7685915;32;38078;-82
2023/09/01 02:26:23;;;;;;;5.87;2.30;;;;;;;16.88;59.22;99946.75;7685606;32;39406;-82
2023/09/01 02:30:39;;;;;;;4.80;2.20;;;;;;;16.89;58.87;99961.34;7685654;32;40803;-83
2023/09/01 02:34:57;;;;;;;3.28;2.30;;;;;;;16.95;58.26;99956.50;7685611;32;37964;-82
2023/09/01 02:39:13;;;;;;;4.07;2.40;;;;;;;16.83;58.57;99955.09;7685682;32;37056;-83
2023/09/01 02:43:30;;;;;;;2.45;2.10;;;;;;;16.84;58.34;99950.44;7693555;32;40059;-83
2023/09/01 02:47:46;;;;;;;3.95;2.33;;;;;;;16.76;58.51;99959.38;7711949;32;40077;-81
2023/09/01 02:52:02;;;;;;;3.33;2.00;;;;;;;16.65;58.81;99958.81;7712008;32;38711;-82
2023/09/01 02:56:19;;;;;;;4.60;2.33;;;;;;;16.60;58.94;99958.91;7712092;32;37018;-83
2023/09/01 03:00:36;;;;;;;6.15;2.58;;;;;;;16.53;59.79;99957.38;7712048;32;39139;-84
2023/09/01 03:04:55;;;;;;;4.40;2.47;;;;;;;16.44;60.57;99959.22;7711751;32;40694;-83
2023/09/01 03:09:12;;;;;;;3.17;2.25;;;;;;;16.51;60.58;99954.13;7712031;32;37892;-84
2023/09/01 03:13:29;;;;;;;7.25;2.60;;;;;;;16.56;60.42;99966.97;7711716;32;37081;-82
2023/09/01 03:17:45;;;;;;;3.62;2.50;;;;;;;16.44;61.14;99975.75;7685280;32;39133;-83
2023/09/01 03:22:04;;;;;;;4.18;2.53;;;;;;;16.47;61.50;99975.12;7685201;32;39986;-82
2023/09/01 03:26:22;;;;;;;6.28;2.22;;;;;;;16.50;62.01;99971.75;7684981;32;36999;-82
2023/09/01 03:30:38;;;;;;;4.53;2.35;;;;;;;16.52;62.26;99972.28;7685952;32;36161;-83
2023/09/01 03:34:55;;;;;;;3.12;2.10;;;;;;;16.66;62.14;99976.94;7711641;32;39358;-82
2023/09/01 03:39:11;;;;;;;3.55;2.45;;;;;;;16.53;63.06;99962.87;7710988;32;40807;-83
2023/09/01 03:43:28;;;;;;;7.12;2.40;;;;;;;16.81;62.53;99951.81;7711388;32;37814;-83
2023/09/01 03:47:44;;;;;;;3.47;2.33;;;;;;;17.00;61.90;99948.94;7711449;32;37295;-82
2023/09/01 03:52:00;;;;;;;5.07;2.50;;;;;;;16.88;62.15;99951.44;7711622;32;39319;-83
2023/09/01 03:56:22;;;;;;;3.70;2.00;;;;;;;16.84;62.11;99948.47;7711252;32;39902;-83
2023/09/01 04:00:39;;;;;;;4.57;2.20;;;;;;;16.76;62.18;99949.19;7684744;32;37685;-83
2023/09/01 04:04:55;;;;;;;4.12;2.25;;;;;;;17.13;60.67;99952.00;7684735;32;37087;-83
2023/09/01 04:09:12;;;;;;;3.22;2.30;;;;;;;17.22;60.18;99950.91;7684601;32;39193;-82
2023/09/01 04:13:29;;;;;;;3.75;2.20;;;;;;;16.89;61.76;99967.66;7683334;32;40827;-83
2023/09/01 04:17:45;;;;;;;5.12;2.60;;;;;;;16.61;62.89;99971.53;7684408;32;37577;-82
2023/09/01 04:22:02;;;;;;;4.80;2.42;;;;;;;16.85;62.22;99968.56;7684473;32;37056;-83
2023/09/01 04:26:19;;;;;;;3.72;2.20;;;;;;;16.89;62.39;99964.09;7684894;32;39357;-83
2023/09/01 04:30:36;;;;;;;3.33;2.35;;;;;;;16.87;62.50;99967.16;7684259;32;40718;-83
2023/09/01 04:34:52;;;;;;;2.95;2.17;;;;;;;17.00;62.14;99959.97;7684081;32;37827;-83
2023/09/01 04:39:09;;;;;;;5.80;2.83;;;;;;;17.01;62.13;99958.84;7684053;32;36886;-83
2023/09/01 04:43:27;;;;;;;3.97;2.50;;;;;;;16.79;62.61;99970.59;7684009;32;39508;-82
2023/09/01 04:47:43;;;;;;;10.35;2.45;;;;;;;17.11;61.76;99973.50;7683854;32;40646;-82
2023/09/01 04:51:59;;;;;;;4.05;2.20;;;;;;;17.13;62.15;99979.53;7682476;32;37795;-82
2023/09/01 04:56:16;;;;;;;6.97;2.45;;;;;;;17.14;62.57;99986.66;7683782;32;37870;-81
2023/09/01 05:00:32;;;;;;;5.57;2.58;;;;;;;17.18;62.79;99993.19;7683731;32;39396;-82
2023/09/01 05:04:49;;;;;;;4.18;2.28;;;;;;;17.04;63.91;99993.19;7683463;32;39988;-83
2023/09/01 05:09:05;;;;;;;7.55;2.70;;;;;;;17.22;63.65;99986.72;7683057;32;37684;-83
2023/09/01 05:13:21;;;;;;;6.97;2.55;;;;;;;17.30;63.35;99985.19;7683435;32;37207;-83
2023/09/01 05:17:38;;;;;;;4.55;2.28;;;;;;;17.33;63.51;99986.47;7683355;32;39348;-83
2023/09/01 05:21:55;;;;;;;2.78;1.77;;;;;;;17.43;63.35;99976.03;7684008;32;39971;-82
2023/09/01 05:26:11;;;;;;;6.72;2.25;;;;;;;17.56;63.08;99966.06;7690449;32;38482;-81
2023/09/01 05:30:27;;;;;;;3.37;2.30;;;;;;;17.65;63.31;99974.41;7688770;32;37830;-81
2023/09/01 05:34:44;;;;;;;5.80;2.50;;;;;;;17.89;62.83;99968.56;7699063;32;39445;-82
2023/09/01 05:39:00;;;;;;;4.00;2.05;;;;;;;17.98;62.25;99972.16;7693565;32;39934;-81
2023/09/01 05:43:17;;;;;;;3.50;2.17;;;;;;;18.08;62.24;99975.81;7694074;32;37402;-82
2023/09/01 05:47:34;;;;;;;13.55;2.72;;;;;;;18.24;62.31;99963.19;7684196;32;37103;-81
2023/09/01 05:51:50;;;;;;;5.55;2.75;;;;;;;18.23;62.32;99972.63;7691900;32;39465;-81
2023/09/01 05:56:07;;;;;;;7.18;2.53;;;;;;;18.50;62.01;99971.56;7687976;32;41200;-72
2023/09/01 06:00:24;;;;;;;4.55;2.20;;;;;;;18.56;61.88;99981.31;7681364;32;38591;-72
2023/09/01 06:04:40;;;;;;;4.35;2.30;;;;;;;18.92;61.81;99972.00;7683974;32;37101;-73
2023/09/01 06:08:57;;;;;;;3.85;2.20;;;;;;;18.98;59.82;99972.66;7689273;32;40032;-71
2023/09/01 06:13:13;;;;;;;3.85;2.42;;;;;;;19.35;58.84;99964.88;7697219;32;40819;-81
2023/09/01 06:17:29;;;;;;;7.65;2.05;;;;;;;19.42;57.76;99962.41;7711538;32;37877;-79
2023/09/01 06:22:02;;;;;;;3.00;2.10;;;;;;;19.57;57.37;99968.56;7707700;32;37058;-79
2023/09/01 06:26:18;;;;;;;4.28;2.15;;;;;;;19.67;56.58;99968.22;7704429;32;39485;-79
2023/09/01 06:30:35;;;;;;;3.85;1.80;;;;;;;19.86;55.20;99978.94;7708192;32;39844;-80
2023/09/01 06:34:52;;;;;;;2.65;2.00;;;;;;;19.96;54.60;99986.09;7705967;32;38764;-80
2023/09/01 06:39:09;;;;;;;4.60;2.03;;;;;;;20.23;54.38;99998.66;7700549;32;38311;-81
2023/09/01 06:43:26;;;;;;;6.37;2.72;;;;;;;20.49;53.01;99995.81;7691577;32;40045;-81
2023/09/01 06:47:43;;;;;;;2.70;1.80;;;;;;;20.70;51.87;100003.37;7692082;32;40816;-80
2023/09/01 06:51:59;;;;;;;2.83;1.77;;;;;;;20.92;50.64;100005.84;7684638;32;38531;-80
2023/09/01 06:56:16;;;;;;;3.97;2.08;;;;;;;21.22;50.07;100000.25;7698277;32;37143;-80
2023/09/01 07:00:32;;;;;;;5.65;2.22;;;;;;;21.52;50.88;100003.75;7700980;32;39409;-82
2023/09/01 07:04:49;;;;;;;2.62;1.73;;;;;;;21.48;51.50;100004.78;7693571;32;39889;-82
2023/09/01 07:09:05;;;;;;;3.85;2.12;;;;;;;21.64;50.82;100007.75;7693006;32;38727;-81
2023/09/01 07:13:22;;;;;;;3.60;2.33;;;;;;;21.87;50.33;100006.22;7711897;32;37535;-81
2023/09/01 07:17:38;;;;;;;4.50;2.00;;;;;;;22.08;49.54;100017.25;7710832;32;39499;-73
2023/09/01 07:21:54;;;;;;;3.10;2.05;;;;;;;21.75;49.88;100018.06;7711730;32;40142;-80
2023/09/01 07:26:10;;;;;;;5.37;2.10;;;;;;;22.22;48.93;100016.09;7711342;32;38670;-79
2023/09/01 07:30:30;;;;;;;4.15;1.90;;;;;;;22.47;48.31;100006.69;7710416;32;37844;-78
2023/09/01 07:34:47;;;;;;;2.45;1.60;;;;;;;22.48;47.51;100013.84;7711512;32;40098;-79
2023/09/01 07:39:04;;;;;;;2.78;1.80;;;;;;;22.71;47.18;100009.78;7711610;32;40326;-79
2023/09/01 07:43:20;;;;;;;4.00;1.83;;;;;;;22.34;44.63;100018.94;7711429;32;38775;-79
2023/09/01 07:47:36;;;;;;;3.80;1.62;;;;;;;22.27;45.50;100033.37;7711535;32;37041;-79
2023/09/01 07:51:53;;;;;;;4.47;1.80;;;;;;;21.98;43.72;100039.88;7711392;32;39087;-78
2023/09/01 07:56:13;;;;;;;3.72;1.52;;;;;;;22.33;43.48;100045.06;7711287;32;40680;-78
2023/09/01 08:00:29;;;;;;;6.10;2.08;;;;;;;22.64;42.98;100033.41;7711224;32;37902;-79
2023/09/01 08:04:45;;;;;;;9.98;2.22;;;;;;;22.80;42.81;100025.19;7711265;32;37244;-79
2023/09/01 08:09:03;;;;;;;2.72;1.83;;;;;;;22.74;43.95;100025.78;7711126;32;39456;-79
2023/09/01 08:13:19;;;;;;;4.65;1.90;;;;;;;22.49;44.09;100025.75;7711047;32;39770;-78
2023/09/01 08:17:35;;;;;;;6.68;1.60;;;;;;;22.71;44.67;100018.91;7710990;32;37912;-79
2023/09/01 08:21:52;;;;;;;5.00;1.83;;;;;;;22.94;43.48;100019.25;7709804;32;37100;-79
2023/09/01 08:26:08;;;;;;;6.00;1.87;;;;;;;22.93;42.74;100028.75;7702195;32;40245;-78
2023/09/01 08:30:26;;;;;;;4.20;1.90;;;;;;;22.96;42.20;100028.06;7701879;32;40821;-78
2023/09/01 08:34:43;;;;;;;2.53;1.50;;;;;;;22.99;43.71;100026.53;7701814;32;37735;-79
2023/09/01 08:38:59;;;;;;;3.17;1.60;;;;;;;23.18;42.78;100017.59;7687507;32;36884;-79
2023/09/01 08:43:16;;;;;;;4.43;2.03;;;;;;;23.48;41.27;100014.53;7698021;32;39181;-79
2023/09/01 08:47:39;;;;;;;3.40;1.95;;;;;;;23.70;40.93;100004.78;7708814;32;39993;-80
2023/09/01 08:51:57;;;;;;;3.67;2.20;;;;;;;23.33;43.40;100007.72;7705368;32;37770;-80
2023/09/01 08:56:13;;;;;;;2.85;1.70;;;;;;;23.71;43.12;100015.56;7710107;32;37670;-79
2023/09/01 09:00:30;;;;;;;3.70;1.87;;;;;;;24.04;41.80;100008.12;7683481;32;39152;-81
2023/09/01 09:04:47;;;;;;;2.92;1.85;;;;;;;24.15;40.81;100014.78;7688121;32;40991;-80
2023/09/01 09:09:14;;;;;;;6.25;1.95;;;;;;;24.61;40.77;100017.97;7682786;32;38127;-79
2023/09/01 09:13:31;;;;;;;3.30;1.80;;;;;;;24.63;40.00;100021.19;7684353;32;37136;-78
2023/09/01 09:17:48;;;;;;;4.07;1.87;;;;;;;24.90;39.40;100011.03;7685415;32;39997;-78
2023/09/01 09:22:06;;;;;;;3.83;2.03;;;;;;;24.99;40.38;100005.28;7699454;32;39970;-79
2023/09/01 09:26:30;;;;;;;10.52;2.17;;;;;;;25.21;39.31;100012.12;7684445;32;38045;-77
2023/09/01 09:30:53;;;;;;;4.53;1.80;;;;;;;25.32;39.27;100015.19;7700692;32;37371;-78
2023/09/01 09:35:10;;;;;;;3.35;1.92;;;;;;;25.49;40.12;100013.91;7708621;32;39465;-79
2023/09/01 09:39:30;;;;;;;9.10;1.98;;;;;;;25.53;38.52;100014.03;7710353;32;40162;-79
2023/09/01 09:43:48;;;;;;;8.02;2.03;;;;;;;25.68;39.47;100016.72;7711906;32;37935;-79
2023/09/01 09:48:06;;;;;;;4.03;1.90;;;;;;;25.72;37.87;100016.00;7712971;32;36403;-79
2023/09/01 09:52:24;;;;;;;3.67;1.90;;;;;;;25.92;38.15;100020.34;7711572;32;40108;-80
2023/09/01 09:56:40;;;;;;;4.30;1.67;;;;;;;25.73;38.56;100015.59;7711333;32;40078;-79
2023/09/01 10:01:02;;;;;;;3.92;2.10;;;;;;;25.97;38.67;100014.47;7711430;32;38087;-79
2023/09/01 10:05:20;;;;;;;2.62;1.50;;;;;;;26.20;38.37;100014.50;7712620;32;37052;-80
2023/09/01 10:09:38;;;;;;;4.57;1.83;;;;;;;26.30;38.60;100012.25;7710275;32;39354;-79
2023/09/01 10:13:59;;;;;;;4.32;1.80;;;;;;;26.50;37.31;100016.59;7711642;32;39854;-79
2023/09/01 10:18:16;;;;;;;2.22;1.70;;;;;;;25.72;37.58;100011.22;7711706;32;37705;-80
2023/09/01 10:22:41;;;;;;;3.70;1.70;;;;;;;25.83;38.47;100006.63;7710962;32;37016;-80
2023/09/01 10:27:09;;;;;;;3.12;1.62;;;;;;;25.73;38.32;100010.00;7710999;32;39122;-79
2023/09/01 10:31:27;;;;;;;4.07;2.03;;;;;;;25.67;38.35;100001.12;7710737;32;38289;-79
2023/09/01 10:35:51;;;;;;;5.80;2.37;;;;;;;25.88;37.98;100004.72;7699442;32;38115;-78
2023/09/01 10:40:44;;;;;;;3.03;1.90;;;;;;;25.83;38.80;100001.03;7704351;32;37729;-79
2023/09/01 10:45:08;;;;;;;3.50;2.03;;;;;;;26.14;37.68;99993.63;7685592;32;39475;-78
2023/09/01 10:49:54;;;;;;;4.87;1.80;;;;;;;25.70;38.74;100002.41;7685190;32;39931;-79
2023/09/01 10:54:19;;;;;;;4.78;1.87;;;;;;;25.64;37.13;99998.28;7704757;32;38489;-79
2023/09/01 10:58:52;;;;;;;4.75;1.80;;;;;;;24.93;40.05;99993.59;7712065;32;36353;-80
2023/09/01 11:03:30;;;;;;;4.95;1.90;;;;;;;25.34;39.97;99992.50;7712023;32;39440;-80
2023/09/01 11:08:18;;;;;;;5.50;2.10;;;;;;;25.73;38.71;99987.69;7710993;32;40730;-79
2023/09/01 11:12:35;;;;;;;4.43;1.98;;;;;;;25.62;39.10;99995.84;7679275;32;38540;-81
2023/09/01 11:16:51;;;;;;;2.35;1.50;;;;;;;25.53;38.19;99980.53;7700543;32;37714;-80
2023/09/01 11:21:08;;;;;;;5.45;1.90;;;;;;;25.03;39.81;99997.81;7711829;32;40080;-78
2023/09/01 11:25:27;;;;;;;2.45;1.83;;;;;;;24.60;39.77;99979.31;7710393;32;40828;-79
2023/09/01 11:29:49;;;;;;;3.03;1.77;;;;;;;25.34;39.41;99990.50;7691755;32;37868;-78
2023/09/01 11:34:05;;;;;;;2.95;1.85;;;;;;;25.00;38.98;99979.00;7707207;32;37652;-79
2023/09/01 11:38:21;;;;;;;4.20;1.90;;;;;;;24.71;39.73;99975.56;7705661;32;39376;-80
2023/09/01 11:42:39;;;;;;;2.10;1.80;;;;;;;25.10;37.94;99980.41;7703259;32;40835;-78
2023/09/01 11:46:56;;;;;;;2.80;2.00;;;;;;;25.50;38.32;99976.47;7707309;32;37771;-79
2023/09/01 11:51:12;;;;;;;4.87;1.95;;;;;;;24.89;39.76;99975.97;7711315;32;36799;-78
2023/09/01 11:55:33;;;;;;;4.82;1.98;;;;;;;25.51;38.89;99977.28;7710249;32;39363;-78
2023/09/01 11:59:50;;;;;;;3.33;2.00;;;;;;;25.43;38.42;99977.13;7711353;32;39238;-78
2023/09/01 12:04:08;;;;;;;3.70;1.77;;;;;;;25.66;37.85;99965.22;7710863;32;37927;-78
2023/09/01 12:08:25;;;;;;;2.97;1.98;;;;;;;25.80;37.71;99964.66;7710112;32;37267;-78
2023/09/01 12:12:41;;;;;;;2.55;2.05;;;;;;;26.42;36.87;99959.78;7711155;32;39359;-79
2023/09/01 12:16:59;;;;;;;3.25;1.90;;;;;;;26.64;37.54;99953.75;7711158;32;39958;-79
2023/09/01 12:21:15;;;;;;;4.45;1.60;;;;;;;26.73;36.28;99952.28;7711002;32;37830;-79
2023/09/01 12:25:32;;;;;;;8.25;2.25;;;;;;;26.15;37.24;99950.56;7710704;32;38104;-74
2023/09/01 12:29:49;;;;;;;3.15;2.10;;;;;;;26.16;37.63;99965.34;7710547;32;39453;-73
2023/09/01 12:34:05;;;;;;;1.90;1.42;;;;;;;26.52;36.75;99955.53;7709302;32;39956;-73
2023/09/01 12:38:22;;;;;;;2.55;1.52;;;;;;;25.39;35.54;99962.31;7710356;32;37983;-75
2023/09/01 12:42:38;;;;;;;2.00;1.37;;;;;;;25.33;34.57;99960.19;7709389;32;37091;-76
2023/09/01 12:46:55;;;;;;;1.90;1.35;;;;;;;25.22;35.59;99955.16;7710602;32;39390;-75
2023/09/01 12:51:11;;;;;;;3.17;1.50;;;;;;;25.29;36.65;99955.34;7710514;32;39731;-75
2023/09/01 12:55:28;;;;;;;2.25;1.52;;;;;;;24.67;36.39;99957.16;7710381;32;39372;-75
2023/09/01 12:59:44;;;;;;;3.08;1.40;;;;;;;25.27;36.20;99954.09;7710337;32;37850;-73
2023/09/01 13:04:00;;;;;;;4.22;1.60;;;;;;;25.37;35.83;99945.16;7710215;32;39409;-79
2023/09/01 13:08:17;;;;;;;11.43;1.33;;;;;;;25.78;34.87;99937.12;7710075;32;39934;-78
2023/09/01 13:12:33;;;;;;;1.62;1.40;;;;;;;25.41;34.83;99942.41;7708921;32;37709;-78
2023/09/01 13:16:49;;;;;;;1.95;1.60;;;;;;;25.35;35.41;99936.31;7713311;32;36792;-78
2023/09/01 13:21:06;;;;;;;4.50;1.50;;;;;;;25.01;36.91;99938.81;7713231;32;39323;-73
2023/09/01 13:25:22;;;;;;;1.75;1.23;;;;;;;24.84;37.23;99939.22;7712340;32;40888;-72
2023/09/01 13:29:38;;;;;;;1.83;1.52;;;;;;;25.51;37.67;99933.44;7711727;32;38067;-83
2023/09/01 13:33:54;;;;;;;7.28;1.67;;;;;;;25.70;37.54;99934.56;7711886;32;36984;-83
2023/09/01 13:38:11;;;;;;;2.28;1.58;;;;;;;26.32;36.28;99926.06;7711826;32;39197;-80
2023/09/01 13:42:28;;;;;;;5.45;1.60;;;;;;;26.08;34.34;99933.69;7711627;32;40038;-81
2023/09/01 13:46:45;;;;;;;1.62;1.37;;;;;;;26.19;35.51;99922.69;7711419;32;37854;-81
2023/09/01 13:51:01;;;;;;;5.32;1.52;;;;;;;26.56;35.53;99917.28;7711404;32;37353;-81
2023/09/01 13:55:18;;;;;;;4.18;2.30;;;;;;;26.66;36.43;99909.44;7711761;32;39282;-80
2023/09/01 13:59:34;;;;;;;1.85;1.50;;;;;;;26.73;34.37;99913.16;7707290;32;40896;-81
2023/09/01 14:03:50;;;;;;;4.55;1.80;;;;;;;27.54;34.91;99906.16;7709529;32;37872;-81
2023/09/01 14:08:07;;;;;;;2.60;1.58;;;;;;;28.42;33.40;99903.69;7710739;32;37799;-82
2023/09/01 14:12:23;;;;;;;1.67;1.45;;;;;;;28.32;31.72;99903.59;7710733;32;39195;-81
2023/09/01 14:16:40;;;;;;;1.67;1.30;;;;;;;28.51;31.58;99900.56;7710835;32;39854;-81
2023/09/01 14:20:57;;;;;;;2.65;1.40;;;;;;;29.01;29.90;99902.81;7710411;32;37933;-81
2023/09/01 14:25:14;;;;;;;2.78;1.30;;;;;;;28.20;30.94;99901.91;7702202;32;282977;-81
2023/09/01 14:29:35;;;;;;;3.62;1.55;;;;;;;28.68;31.16;99893.44;7711991;32;40236;-81
2023/09/01 14:33:51;;;;;;;2.72;1.50;;;;;;;28.40;29.83;99916.47;7711799;32;39718;-81
2023/09/01 14:38:08;;;;;;;1.95;1.40;;;;;;;28.59;30.15;99901.41;7711808;32;38765;-82
2023/09/01 14:42:25;;;;;;;2.15;1.40;;;;;;;28.66;29.83;99893.03;7710706;32;37577;-81
2023/09/01 14:46:41;;;;;;;2.80;1.27;;;;;;;28.82;29.39;99882.31;7711907;32;39208;-82
2023/09/01 14:50:57;;;;;;;2.20;1.35;;;;;;;28.99;29.58;99882.75;7711757;32;39882;-82
2023/09/01 14:55:14;;;;;;;1.65;1.35;;;;;;;28.14;30.50;99887.47;7711532;32;38693;-82
2023/09/01 14:59:30;;;;;;;2.58;1.52;;;;;;;28.07;30.62;99888.22;7711803;32;37901;-81
2023/09/01 15:03:46;;;;;;;2.53;1.30;;;;;;;28.51;29.24;99882.91;7711390;32;39301;-82
2023/09/01 15:08:03;;;;;;;2.20;1.30;;;;;;;27.97;29.46;99874.94;7711532;32;40883;-82
2023/09/01 15:12:20;;;;;;;1.73;1.25;;;;;;;27.87;32.13;99881.22;7711162;32;38055;-81
2023/09/01 15:16:36;;;;;;;6.28;1.70;;;;;;;27.90;31.63;99878.44;7711515;32;36999;-81
2023/09/01 15:21:06;;;;;;;2.25;1.35;;;;;;;28.16;30.74;99873.88;7711357;32;39413;-81
2023/09/01 15:25:22;;;;;;;2.85;1.42;;;;;;;27.72;31.42;99881.09;7711201;32;40005;-82
2023/09/01 15:29:38;;;;;;;2.05;1.52;;;;;;;27.37;32.74;99873.16;7711220;32;37956;-81
2023/09/01 15:33:59;;;;;;;1.20;1.10;;;;;;;27.69;31.96;99879.06;7711013;32;37956;-81
2023/09/01 15:38:15;;;;;;;1.40;1.30;;;;;;;27.57;31.20;99870.97;7710105;32;40899;-80
2023/09/01 15:42:32;;;;;;;4.62;1.45;;;;;;;27.06;32.29;99882.78;7710120;32;39911;-80
2023/09/01 15:46:48;;;;;;;1.42;1.33;;;;;;;27.08;32.43;99877.59;7711355;32;37983;-80
2023/09/01 15:51:06;;;;;;;1.55;1.40;;;;;;;27.13;32.59;99877.25;7710190;32;36970;-81
2023/09/01 15:55:23;;;;;;;6.65;1.58;;;;;;;26.34;34.51;99884.59;7710051;32;39564;-81
2023/09/01 15:59:39;;;;;;;3.35;1.48;;;;;;;26.82;34.17;99879.31;7706627;32;40626;-81
2023/09/01 16:03:56;;;;;;;3.85;1.37;;;;;;;26.16;34.85;99882.31;7696985;32;38654;-81
2023/09/01 16:08:20;;;;;;;1.52;1.23;;;;;;;26.54;34.19;99872.09;7697225;32;37897;-80
2023/09/01 16:12:37;;;;;;;1.50;1.40;;;;;;;26.63;34.68;99879.44;7696826;32;39440;-80
2023/09/01 16:16:55;;;;;;;3.58;1.80;;;;;;;26.78;33.87;99876.44;7696716;32;39760;-81
2023/09/01 16:21:14;;;;;;;2.65;1.80;;;;;;;26.95;34.14;99875.06;7696819;32;38766;-81
2023/09/01 16:25:31;;;;;;;4.95;2.60;;;;;;;27.04;35.26;99868.38;7696115;32;37109;-81
2023/09/01 16:29:51;;;;;;;4.60;2.65;;;;;;;27.07;34.51;99871.19;7697452;32;39161;-81
2023/09/01 16:34:09;;;;;;;5.15;1.83;;;;;;;27.11;34.34;99868.44;7689826;32;42108;-81
2023/09/01 16:38:27;;;;;;;2.37;1.80;;;;;;;27.30;34.98;99873.06;7697166;32;37659;-81
2023/09/01 16:42:44;;;;;;;3.05;1.83;;;;;;;27.25;34.17;99876.19;7688389;32;35746;-83
2023/09/01 16:47:01;;;;;;;2.45;1.62;;;;;;;27.25;35.33;99881.78;7682589;32;39984;-83
2023/09/01 16:51:17;;;;;;;1.85;1.60;;;;;;;27.25;35.94;99882.62;7683748;32;40742;-81
2023/09/01 16:55:33;;;;;;;2.62;1.58;;;;;;;27.21;36.12;99880.94;7683707;32;37886;-85
2023/09/01 16:59:50;;;;;;;3.45;2.08;;;;;;;27.07;36.87;99882.38;7683731;32;36957;-80
2023/09/01 17:04:06;;;;;;;6.87;2.17;;;;;;;26.98;36.09;99891.09;7683633;32;40099;-80
2023/09/01 17:08:23;;;;;;;5.80;2.30;;;;;;;26.86;35.33;99882.94;7683476;32;40928;-80
2023/09/01 17:12:39;;;;;;;3.33;2.10;;;;;;;26.71;35.42;99886.75;7683273;32;38724;-80
2023/09/01 17:16:56;;;;;;;7.40;2.83;;;;;;;26.45;36.14;99888.34;7682106;32;36996;-80
2023/09/01 17:21:12;;;;;;;11.12;3.03;;;;;;;26.47;36.20;99887.97;7683087;32;40172;-80
2023/09/01 17:25:28;;;;;;;11.27;3.65;;;;;;;26.46;36.89;99889.97;7682848;32;41167;-79
2023/09/01 17:29:45;;;;;;;7.53;2.75;;;;;;;26.34;37.26;99901.37;7682970;32;37896;-80
2023/09/01 17:34:02;;;;;;;8.93;2.95;;;;;;;26.05;38.63;99889.75;7682920;32;36958;-80
2023/09/01 17:38:18;;;;;;;3.90;1.85;;;;;;;25.99;39.13;99899.59;7682776;32;40144;-80
2023/09/01 17:42:35;;;;;;;7.70;2.20;;;;;;;25.73;40.19;99901.13;7682766;32;39977;-80
2023/09/01 17:46:51;;;;;;;3.30;1.77;;;;;;;25.60;40.90;99905.31;7682541;32;37667;-80
2023/09/01 17:51:07;;;;;;;6.03;1.98;;;;;;;25.20;41.92;99909.28;7686126;32;37991;-80
2023/09/01 17:55:27;;;;;;;5.20;1.90;;;;;;;25.06;42.36;99913.41;7708529;32;40140;-80
2023/09/01 17:59:43;;;;;;;5.05;2.75;;;;;;;25.03;42.21;99913.34;7710317;32;39738;-80
2023/09/01 18:03:59;;;;;;;3.25;2.17;;;;;;;24.78;41.57;99919.16;7712624;32;37668;-80
2023/09/01 18:08:16;;;;;;;5.62;1.87;;;;;;;24.66;42.37;99924.87;7700446;32;37269;-80
2023/09/01 18:12:32;;;;;;;4.32;2.03;;;;;;;24.42;43.86;99931.47;7685934;32;39428;-82
2023/09/01 18:16:49;;;;;;;2.45;1.70;;;;;;;24.28;44.46;99941.09;7684677;32;41197;-79
2023/09/01 18:21:06;;;;;;;3.78;2.03;;;;;;;24.17;44.56;99948.37;7687227;32;38688;-81
2023/09/01 18:25:23;;;;;;;3.95;2.05;;;;;;;23.95;44.94;99955.37;7685649;32;37919;-80
2023/09/01 18:29:40;;;;;;;8.27;2.50;;;;;;;23.81;45.51;99958.59;7697073;32;39154;-81
2023/09/01 18:34:00;;;;;;;2.90;1.95;;;;;;;23.79;45.79;99958.94;7688733;32;40966;-84
2023/09/01 18:38:16;;;;;;;4.05;2.40;;;;;;;23.53;46.43;99958.62;7684437;32;37983;-83
2023/09/01 18:42:37;;;;;;;7.50;2.80;;;;;;;23.27;46.68;99961.84;7706149;32;37818;-81
2023/09/01 18:46:54;;;;;;;4.87;2.30;;;;;;;23.18;46.96;99968.38;7711546;32;39346;-82
2023/09/01 18:51:10;;;;;;;4.05;2.50;;;;;;;23.27;47.10;99959.88;7708525;32;40784;-83
2023/09/01 18:55:30;;;;;;;4.65;2.35;;;;;;;23.14;47.36;99961.09;7712065;32;37918;-82
2023/09/01 18:59:46;;;;;;;4.95;2.67;;;;;;;22.83;48.23;99966.09;7703159;32;37137;-80
2023/09/01 19:04:06;;;;;;;4.37;1.95;;;;;;;22.87;48.08;99972.59;7698179;32;37902;-80
2023/09/01 19:08:25;;;;;;;4.55;2.40;;;;;;;22.76;48.55;99977.00;7696128;32;40918;-79
2023/09/01 19:12:44;;;;;;;3.55;2.05;;;;;;;22.72;48.32;99976.09;7690065;32;36996;-80
2023/09/01 19:17:01;;;;;;;4.65;2.25;;;;;;;22.63;48.66;99979.00;7697222;32;37827;-80
2023/09/01 19:21:20;;;;;;;4.07;2.30;;;;;;;22.63;48.66;99979.00;7697374;32;40137;-81
2023/09/01 19:25:36;;;;;;;4.05;2.28;;;;;;;22.56;48.72;99976.00;7695703;32;40160;-82
2023/09/01 19:29:53;;;;;;;4.47;2.50;;;;;;;22.63;48.59;99981.78;7697072;32;37880;-81
2023/09/01 19:34:12;;;;;;;7.50;2.45;;;;;;;22.48;49.00;99979.69;7696751;32;38052;-80
2023/09/01 19:38:32;;;;;;;5.50;2.45;;;;;;;22.08;50.21;99991.44;7696896;32;39492;-81
2023/09/01 19:42:48;;;;;;;4.50;2.10;;;;;;;22.04;50.42;99996.06;7696677;32;40833;-80
2023/09/01 19:47:09;;;;;;;4.45;2.20;;;;;;;22.02;50.30;100001.94;7695067;32;37956;-80
2023/09/01 19:51:26;;;;;;;5.55;2.53;;;;;;;21.92;50.64;100002.38;7703309;32;36940;-80
2023/09/01 19:56:14;;;;;;;3.62;2.17;;;;;;;21.96;50.37;100003.34;7698075;32;39290;-80
2023/09/01 20:00:31;;;;;;;4.75;2.50;;;;;;;22.02;50.31;100010.28;7696696;32;40779;-80
2023/09/01 20:04:50;;;;;;;6.78;2.72;;;;;;;21.73;51.17;100000.97;7696394;32;38647;-80
2023/09/01 20:09:16;;;;;;;5.90;2.60;;;;;;;21.69;51.19;100010.31;7697053;32;37241;-80
2023/09/01 20:13:36;;;;;;;3.60;2.17;;;;;;;21.81;50.89;100006.75;7698354;32;39433;-79